^^

Nearby METAR Reports

 

EGNV - Tees-Side, United Kingdom
Distance from station: E 6mi, 10km
Updated: 28/05/2024 08:50
Mostly cloudy
Mostly cloudy
 Wind from S
Wind: S 10 mph, 17 km/h
Temperature: 13°C
Dew Point: 10°C
Humidity: 82%
Barometer: 1010 hPa
Clouds: Mostly cloudy
Visibility: 6 miles, 10 km
Cloud details: Mostly cloudy 975 m
2024/05/28 07:50 EGNV 280750Z 18009KT 9999 BKN032 13/10 Q1010
EGXE - Leeming Raf, United Kingdom
Distance from station: S 16mi, 25km
Updated: 28/05/2024 08:50
Mostly cloudy
Mostly cloudy
 Wind from SSE
Wind: SSE 9 mph, 15 km/h
Temperature: 13°C
Dew Point: 10°C
Humidity: 82%
Barometer: 1010 hPa
Clouds: Mostly cloudy
Visibility: 6 miles, 10 km
Cloud details: Few Clouds 305 m
Mostly cloudy 914 m
Mostly cloudy 1829 m
2024/05/28 07:50 EGXE 280750Z 15008KT 9999 FEW010 BKN030 BKN060 13/10 Q1010 BECMG BKN016 RMK BLU BECMG WHT
 
EGXZ - Topcliffe Raf, United Kingdom
Distance from station: SSE 23mi, 36km
Updated: 28/05/2024 08:50
Overcast
Overcast
 Wind from SE
Wind: SE 13 mph, 20 km/h
Temperature: 14°C
Dew Point: 11°C
Humidity: 82%
Barometer: 1010 hPa
Clouds: Overcast
Visibility: 6 miles, 10 km
Cloud details: Few Clouds 914 m
Overcast 2042 m
2024/05/28 07:50 EGXZ 280750Z AUTO 14011KT 9999 FEW030/// OVC067/// 14/11 Q1010
EGNT - Newcastle, United Kingdom
Distance from station: N 35mi, 57km
Updated: 28/05/2024 08:50
Few Clouds
Few Clouds
 Wind from S
Wind: S 8 mph, 13 km/h
Temperature: 14°C
Dew Point: 9°C
Humidity: 72%
Barometer: 1009 hPa
Clouds: Few Clouds
Visibility: 6 miles, 10 km
Cloud details: Few Clouds 640 m
2024/05/28 07:50 EGNT 280750Z 18007KT 140V240 9999 FEW021 14/09 Q1009
 
EGNM - Leeds And Bradfo, United Kingdom
Distance from station: S 44mi, 71km
Updated: 28/05/2024 08:50
Mostly cloudy
Mostly cloudy
 Wind from SE
Wind: SE 9 mph, 15 km/h
Temperature: 12°C
Dew Point: 9°C
Humidity: 82%
Barometer: 1010 hPa
Clouds: Mostly cloudy
Visibility: 6 miles, 10 km
Cloud details: Partly cloudy 427 m
Mostly cloudy 549 m
2024/05/28 07:50 EGNM 280750Z 14008KT 100V160 9999 SCT014 BKN018 12/09 Q1010